| time (UTC) | temp F | wind direction | speed knots | gust knots | rain 1hr in | rain 24hr in | rain mn in | humidity % | barometer mb |
| 20260505121540 | 54 | 165 | 0.9 | 7.8 | 0.00 | 0.00 | 0.00 | 87 | 1013.6 |
| 20260505120048 | 54 | 167 | 1.7 | 6.1 | 0.00 | 0.00 | 0.00 | 87 | 1013.4 |
| 20260505114606 | 54 | 174 | 1.7 | 6.1 | 0.00 | 0.00 | 0.00 | 88 | 1013.5 |
| 20260505113042 | 54 | 171 | 0.9 | 6.1 | 0.00 | 0.00 | 0.00 | 88 | 1013.4 |
| 20260505111558 | 54 | 187 | 1.7 | 7.0 | 0.00 | 0.00 | 0.00 | 88 | 1013.4 |
| 20260505101545 | 53 | 143 | 2.6 | 6.1 | 0.00 | 0.00 | 0.00 | 89 | 1013.0 |
| 20260505100043 | 53 | 0 | 0.9 | 7.0 | 0.00 | 0.00 | 0.00 | 89 | 1012.9 |
| 20260505094547 | 53 | 176 | 1.7 | 7.8 | 0.00 | 0.00 | 0.00 | 89 | 1012.8 |
| 20260505093043 | 53 | 188 | 2.6 | 6.1 | 0.00 | 0.00 | 0.00 | 89 | 1012.8 |
| 20260505091545 | 53 | 189 | 1.7 | 6.1 | 0.00 | 0.00 | 0.00 | 89 | 1012.7 |
| 20260505090050 | 53 | 184 | 2.6 | 7.0 | 0.00 | 0.00 | 0.00 | 89 | 1012.6 |
| 20260505084541 | 53 | 188 | 1.7 | 7.0 | 0.00 | 0.00 | 0.00 | 89 | 1012.5 |
| 20260505083101 | 53 | 188 | 1.7 | 6.1 | 0.00 | 0.00 | 0.00 | 88 | 1012.5 |
| 20260505081548 | 54 | 180 | 1.7 | 7.0 | 0.00 | 0.00 | 0.00 | 88 | 1012.4 |
| 20260505080046 | 54 | 0 | 2.6 | 6.1 | 0.00 | 0.00 | 0.00 | 88 | 1012.4 |
| 20260505074545 | 54 | 178 | 2.6 | 6.1 | 0.00 | 0.00 | 0.00 | 88 | 1012.2 |
| 20260505073048 | 54 | 175 | 1.7 | 6.1 | 0.00 | 0.00 | 0.00 | 87 | 1012.0 |
| 20260505071544 | 54 | 180 | 2.6 | 7.8 | 0.00 | 0.00 | 0.00 | 87 | 1011.9 |
| 20260505070051 | 54 | 169 | 1.7 | 6.1 | 0.00 | 0.00 | 0.00 | 87 | 1011.8 |
| 20260505064557 | 55 | 178 | 2.6 | 9.6 | 0.00 | 0.00 | 0.00 | 86 | 1011.7 |
| 20260505063050 | 55 | 190 | 1.7 | 8.7 | 0.00 | 0.00 | 0.00 | 86 | 1011.4 |
| 20260505061554 | 55 | 167 | 1.7 | 6.1 | 0.00 | 0.00 | 0.00 | 85 | 1011.3 |
| 20260505060049 | 56 | 177 | 2.6 | 5.2 | 0.00 | 0.00 | 0.00 | 84 | 1011.1 |
| 20260505054557 | 56 | 167 | 1.7 | 6.1 | 0.00 | 0.00 | 0.00 | 84 | 1011.0 |
| 20260505053051 | 57 | 192 | 1.7 | 6.1 | 0.00 | 0.00 | 0.00 | 82 | 1010.9 |
| 20260505051541 | 57 | 173 | 1.7 | 5.2 | 0.00 | 0.00 | 0.00 | 82 | 1010.8 |
| 20260505041600 | 61 | 177 | 2.6 | 6.1 | 0.00 | 0.00 | 0.00 | 76 | 1010.2 |
| 20260505040050 | 62 | 180 | 1.7 | 5.2 | 0.00 | 0.00 | 0.00 | 74 | 1009.9 |
| 20260505034545 | 63 | 209 | 2.6 | 7.8 | 0.00 | 0.00 | 0.00 | 72 | 1009.6 |
| 20260505033043 | 64 | 180 | 1.7 | 5.2 | 0.00 | 0.00 | 0.00 | 70 | 1009.4 |
| 20260505031541 | 66 | 167 | 1.7 | 8.7 | 0.00 | 0.00 | 0.00 | 68 | 1009.2 |
| 20260505030044 | 67 | 0 | 0.0 | 6.1 | 0.00 | 0.00 | 0.00 | 66 | 1009.2 |
| 20260505024547 | 69 | 179 | 1.7 | 5.2 | 0.00 | 0.00 | 0.00 | 63 | 1008.9 |
| 20260505023048 | 70 | 173 | 1.7 | 5.2 | 0.00 | 0.00 | 0.00 | 61 | 1008.8 |
| 20260505021547 | 71 | 192 | 2.6 | 7.8 | 0.00 | 0.00 | 0.00 | 58 | 1008.8 |
| 20260505020043 | 73 | 157 | 4.3 | 8.7 | 0.00 | 0.00 | 0.00 | 55 | 1008.7 |
| 20260505014545 | 73 | 0 | 1.7 | 6.1 | 0.00 | 0.00 | 0.00 | 56 | 1008.7 |
| 20260505013045 | 74 | 182 | 3.5 | 7.8 | 0.00 | 0.00 | 0.00 | 56 | 1008.8 |
| 20260505011546 | 74 | 198 | 1.7 | 5.2 | 0.00 | 0.00 | 0.00 | 56 | 1008.8 |
| 20260505010047 | 75 | 178 | 2.6 | 8.7 | 0.00 | 0.00 | 0.00 | 55 | 1008.9 |
| 20260505004545 | 75 | 181 | 1.7 | 4.3 | 0.00 | 0.00 | 0.00 | 54 | 1008.8 |
| 20260505003042 | 76 | 176 | 1.7 | 6.1 | 0.00 | 0.00 | 0.00 | 54 | 1008.9 |
| 20260505001550 | 76 | 166 | 0.9 | 6.1 | 0.00 | 0.00 | 0.00 | 52 | 1009.0 |
| 20260505000054 | 76 | 194 | 0.9 | 5.2 | 0.00 | 0.00 | 0.00 | 50 | 1009.0 |
| 20260504234552 | 76 | 194 | 0.9 | 7.8 | 0.00 | 0.00 | 0.00 | 51 | 1009.1 |
| 20260504233049 | 76 | 0 | 0.0 | 4.3 | 0.00 | 0.00 | 0.00 | 50 | 1009.0 |
| 20260504231558 | 77 | 169 | 0.9 | 6.1 | 0.00 | 0.00 | 0.00 | 48 | 1008.9 |
| 20260504230046 | 78 | 188 | 0.9 | 4.3 | 0.00 | 0.00 | 0.00 | 47 | 1009.2 |
| 20260504224543 | 78 | 173 | 0.0 | 5.2 | 0.00 | 0.00 | 0.00 | 49 | 1009.4 |
| 20260504223046 | 78 | 179 | 0.0 | 3.5 | 0.00 | 0.00 | 0.00 | 48 | 1009.6 |
| 20260504221551 | 78 | 172 | 0.0 | 5.2 | 0.00 | 0.00 | 0.00 | 48 | 1009.7 |
| 20260504220042 | 78 | 319 | 0.0 | 4.3 | 0.00 | 0.00 | 0.00 | 48 | 1009.8 |
| 20260504214545 | 77 | 0 | 0.0 | 0.9 | 0.00 | 0.00 | 0.00 | 51 | 1010.0 |
| 20260504213044 | 76 | 172 | 0.9 | 5.2 | 0.00 | 0.00 | 0.00 | 53 | 1010.0 |
| 20260504211550 | 74 | 181 | 1.7 | 6.1 | 0.00 | 0.00 | 0.00 | 55 | 1010.1 |
| 20260504210105 | 74 | 168 | 0.0 | 5.2 | 0.00 | 0.00 | 0.00 | 55 | 1010.2 |
| 20260504204548 | 74 | 166 | 2.6 | 6.1 | 0.00 | 0.00 | 0.00 | 53 | 1010.3 |
| 20260504203046 | 73 | 184 | 1.7 | 5.2 | 0.00 | 0.00 | 0.00 | 59 | 1010.4 |
| 20260504201549 | 72 | 200 | 1.7 | 7.8 | 0.00 | 0.00 | 0.00 | 60 | 1010.1 |
| 20260504200046 | 72 | 180 | 2.6 | 6.1 | 0.00 | 0.00 | 0.00 | 60 | 1010.2 |
| 20260504194600 | 72 | 172 | 2.6 | 7.0 | 0.00 | 0.00 | 0.00 | 61 | 1010.4 |
| 20260504193042 | 71 | 186 | 1.7 | 6.1 | 0.00 | 0.00 | 0.00 | 61 | 1010.5 |
| 20260504191550 | 70 | 156 | 4.3 | 7.8 | 0.00 | 0.00 | 0.00 | 61 | 1010.5 |
| 20260504184555 | 69 | 0 | 2.6 | 8.7 | 0.00 | 0.00 | 0.00 | 62 | 1010.7 |
| 20260504183050 | 69 | 190 | 0.9 | 7.8 | 0.00 | 0.00 | 0.00 | 63 | 1010.7 |
| 20260504181558 | 68 | 175 | 0.0 | 6.1 | 0.00 | 0.00 | 0.00 | 64 | 1010.6 |
| 20260504180143 | 67 | 175 | 1.7 | 7.8 | 0.00 | 0.00 | 0.00 | 64 | 1010.7 |
| 20260504174551 | 66 | 200 | 2.6 | 5.2 | 0.00 | 0.00 | 0.00 | 64 | 1010.9 |
| 20260504173057 | 65 | 182 | 3.5 | 7.8 | 0.00 | 0.00 | 0.00 | 64 | 1010.8 |
| 20260504171551 | 65 | 172 | 4.3 | 6.1 | 0.00 | 0.00 | 0.00 | 64 | 1010.8 |
| 20260504160126 | 65 | 182 | 0.9 | 5.2 | 0.00 | 0.00 | 0.00 | 62 | 1010.3 |